Hlavní strana
METAR-TAF:

METAR-TAF

Letiště :

Bělehrad, Srbsko

Letiště Bělehrad

zeměpisná šířka: 44-49N, zeměpisná délka: 020-17E, výška: 96 m

Aktuální stav počasí

Zpráva byla vytvořena před 29 minutami, v 14:00 UTC
Západní vítr 5 kt, proměnlivý mezi jihozápadním a severoseverozápadním
Teplota 26°C
Vlhkost vzduchu 30%
Tlak 1015 hPa
Viditelnost 10 km a více
Žádná oblačnost pod 1500 m, nevyskytují se cumulonimby.

METAR: LYBE 221400Z 26005KT 230V340 CAVOK 26/07 Q1015 NOSIG

Čas: 16:29 (14:29 UTC)

Předpověď počasí

Zpráva byla vytvořena před 3 hodinami a 29 minutami, v 11:00 UTC
Předpověď platná od 22 v 12 UTC do 23 v 12 UTC
Západojihozápadní vítr 6 kt
Viditelnost 10 km a více
Žádná oblačnost pod 1500 m, nevyskytují se cumulonimby.

TAF: LYBE 221100Z 2212/2312 24006KT CAVOK TX26/2214Z TN10/2304Z

Stav a předpovědi počasí z více než 4 000 letišť (zprávy METAR a TAF).

Červené a žluté tečky na mapě představují dostupné meteorologické stanice.

Když kurzor umístíte na tečku, zobrazí se název stanice.

Pak kliknutím zobrazíte stav a předpověď počasí.

Chcete-li změnit mapu, kliknutím na zelené tlačítko se znaménkem +mapu přiblížíte, kliknutím na zelené tlačítko se znaménkem – mapu oddálíte a kliknutím na zelené šipky přejdete na sousední mapy.


METAR-TAF: